Date,TemperatureHighF,TemperatureAvgF,TemperatureLowF,DewpointHighF,DewpointAvgF,DewpointLowF,HumidityHigh,HumidityAvg,HumidityLow,PressureMaxIn,PressureMinIn,WindSpeedMaxMPH,WindSpeedAvgMPH,GustSpeedMaxMPH,PrecipitationSumIn
2012-1-7,76,71,62,57,54,52,71,56,45,30.23,30.15,1,0,10,0.00
2012-1-18,71,67,65,62,61,59,91,83,68,30.19,30.02,2,0,10,0.00
2012-3-5,78,78,77,40,39,37,26,25,24,30.39,30.38,1,1,10,0.00
2012-3-16,86,79,64,66,62,56,92,59,36,30.27,30.20,1,0,9,0.00
2012-4-26,88,85,80,59,58,56,48,40,34,30.08,30.06,3,1,10,0.00
2012-4-27,89,89,88,53,53,53,30,29,29,30.06,30.06,2,0,10,0.00
2012-4-28,92,89,84,67,60,56,56,38,32,30.14,30.02,2,1,10,0.00
2012-4-30,85,85,84,66,63,62,55,50,47,30.15,30.15,1,1,6,0.00
2012-5-22,95,94,93,57,54,51,29,26,23,29.97,29.89,2,1,10,0.00
2012-5-27,93,89,84,74,71,66,71,57,42,29.85,29.82,4,2,14,0.00
2012-6-8,82,78,76,76,75,75,96,91,81,30.02,29.94,4,0,10,0.00
2012-6-9,76,76,76,75,75,75,96,96,96,30.02,30.02,0,0,0,0.00
2012-6-10,95,90,79,78,76,73,87,64,51,30.12,30.01,4,2,10,0.00
2012-6-16,86,85,85,69,69,69,58,58,57,30.04,30.04,2,2,10,0.00
2012-6-17,90,86,81,70,68,65,66,55,45,30.09,29.98,3,2,9,0.00
2012-6-24,76,76,75,76,75,74,99,98,98,29.79,29.74,2,0,8,0.00
2012-6-25,84,80,77,78,76,74,97,91,79,29.74,29.64,2,1,10,0.00
2012-6-26,80,79,78,76,75,75,94,89,85,29.68,29.61,2,0,10,0.00
2012-6-29,94,94,94,72,72,72,50,50,50,30.04,30.04,0,0,0,0.00
2012-7-4,98,82,78,76,74,71,89,79,44,30.09,30.01,3,1,14,0.00
2012-7-5,97,89,85,75,72,69,73,59,41,30.02,29.99,2,0,13,0.00
2012-7-6,97,93,89,76,73,70,66,54,43,30.06,30.00,2,1,10,0.00
2012-7-8,100,95,89,76,74,71,63,51,43,30.09,30.01,3,1,10,0.00
2012-7-12,91,86,80,77,75,74,87,70,57,30.05,29.97,3,1,9,0.00
2012-7-13,93,87,80,78,75,72,87,69,52,30.11,29.99,2,1,10,0.00
2012-7-14,94,91,82,75,72,70,80,55,49,30.12,30.03,3,2,10,0.00
2012-7-15,95,91,85,76,73,71,74,56,47,30.14,30.06,3,1,10,0.00
2012-9-16,91,83,78,76,74,70,93,75,51,30.07,29.97,0,0,0,0.00
2012-9-17,77,76,74,76,74,72,96,94,90,30.07,30.01,0,0,0,0.00
2012-9-19,94,89,84,76,74,72,73,61,53,30.00,29.96,0,0,0,0.00
2012-9-20,90,87,80,75,73,71,86,64,57,30.07,29.96,0,0,0,0.00
2012-9-26,93,86,74,76,72,69,96,65,47,30.16,30.05,0,0,0,0.00
2012-9-27,80,80,80,74,74,74,81,81,81,30.15,30.15,0,0,0,0.00
2012-10-6,92,83,76,76,73,71,85,73,57,29.98,29.88,0,0,0,0.00
2012-10-10,86,83,81,66,65,64,60,55,50,30.07,30.05,0,0,0,0.00
2012-10-11,86,80,71,70,68,66,84,66,54,30.22,30.14,0,0,0,0.00
2012-10-12,86,72,65,71,66,62,96,82,46,30.22,30.16,0,0,0,0.00
2012-10-14,89,87,83,73,71,70,70,60,54,30.09,30.01,0,0,0,0.00
2012-10-17,79,78,77,72,71,70,85,80,74,29.91,29.83,0,0,0,0.00
2012-10-19,86,85,85,73,73,72,68,67,64,29.84,29.83,0,0,0,0.00
2012-10-22,85,80,69,69,66,64,90,63,52,30.14,30.02,0,0,0,0.00
2012-10-23,83,80,75,70,68,67,78,69,59,30.07,30.05,0,0,0,0.00
2012-10-26,87,86,85,69,67,65,58,54,49,29.74,29.70,0,0,0,0.00
2012-10-27,76,74,70,65,64,63,82,73,68,29.72,29.62,0,0,0,0.00
2012-10-30,68,62,56,50,46,41,79,59,37,29.98,29.87,0,0,0,0.00
2012-10-31,75,72,68,46,45,43,41,38,36,30.09,30.02,0,0,0,0.00
2012-11-1,81,78,71,66,64,61,81,63,53,30.06,29.99,0,0,0,0.00
2012-11-3,86,84,78,71,66,61,77,57,45,30.15,30.05,0,0,0,0.00
2012-11-5,85,83,81,62,61,60,49,48,46,29.96,29.92,0,0,0,0.00
2012-11-8,71,64,54,51,49,48,84,60,46,30.23,30.12,0,0,0,0.00
2012-11-16,67,66,66,59,58,58,77,76,75,30.17,30.16,0,0,0,0.00
2012-11-17,77,70,64,67,63,60,88,80,69,30.21,30.13,0,0,0,0.00
2012-11-18,69,62,57,60,58,56,95,86,73,30.23,30.18,0,0,0,0.00
2012-11-19,57,56,56,56,55,55,95,95,94,30.22,30.22,0,0,0,0.00
2012-12-1,71,67,64,66,64,63,95,90,83,30.28,30.24,3,1,9,0.00
2012-12-2,81,68,61,67,63,60,97,85,51,30.33,30.21,3,0,8,0.00
2012-12-3,66,65,64,65,64,63,96,96,95,30.26,30.25,0,0,0,0.00
2012-12-14,65,64,63,61,61,60,91,89,87,30.20,30.18,3,0,7,0.00
2012-12-23,65,61,58,46,42,39,64,49,38,30.31,30.20,0,0,3,0.00
2012-12-27,63,58,49,48,46,44,91,66,53,30.15,30.06,2,0,10,0.00
2012-12-28,64,64,64,50,50,50,61,61,61,30.09,30.09,0,0,0,0.00